createdAt,value
2018-02-15T07:40:37.720Z,97584.85
2018-02-15T07:41:42.827Z,97597.84
2018-02-15T07:42:47.537Z,97593.80
2018-02-15T07:43:52.297Z,97591.27
2018-02-15T07:44:57.155Z,97513.41
2018-02-15T07:46:03.267Z,97585.55
2018-02-15T07:47:09.811Z,97584.75
2018-02-15T07:48:14.677Z,97587.50
2018-02-15T07:49:20.064Z,97594.69
2018-02-15T07:50:25.004Z,97597.63
2018-02-15T07:51:30.576Z,97597.35
2018-02-15T07:52:36.619Z,97544.40
2018-02-15T07:53:41.467Z,97567.98
2018-02-15T07:54:46.596Z,97591.52
2018-02-15T07:55:51.857Z,97603.31
2018-02-15T07:56:56.684Z,97586.55
2018-02-15T07:58:01.551Z,97544.41
2018-02-15T07:59:06.651Z,97586.03
2018-02-15T08:00:11.534Z,97592.13
2018-02-15T08:01:16.291Z,97594.19
2018-02-15T08:02:21.059Z,97583.96
2018-02-15T08:03:25.846Z,97562.58
2018-02-15T08:04:31.046Z,97581.98
2018-02-15T08:05:36.136Z,97571.37
2018-02-15T08:06:41.355Z,97571.19
2018-02-15T08:07:47.984Z,97613.83
2018-02-15T08:08:52.860Z,97566.07
2018-02-15T08:09:58.354Z,97566.64
2018-02-15T08:11:05.695Z,97571.16
2018-02-15T08:12:13.709Z,97552.95
2018-02-15T08:13:18.844Z,97081.61
2018-02-15T08:14:23.580Z,97564.27
2018-02-15T08:15:28.374Z,97168.84
2018-02-15T08:16:33.959Z,97564.29
2018-02-15T08:17:39.431Z,97559.65
2018-02-15T08:18:44.882Z,97555.75
2018-02-15T08:19:49.656Z,97533.99
2018-02-15T08:20:54.431Z,97559.86
2018-02-15T08:22:00.095Z,97563.84
2018-02-15T08:23:05.214Z,97565.69
2018-02-15T08:24:11.768Z,97556.42
2018-02-15T08:25:18.089Z,97105.05
2018-02-15T08:26:22.754Z,97556.88
2018-02-15T08:27:27.476Z,97558.16
2018-02-15T08:28:33.166Z,97559.61
2018-02-15T08:29:37.839Z,97558.22
2018-02-15T08:30:42.506Z,97511.06
2018-02-15T08:31:47.886Z,97560.58
2018-02-15T08:32:52.717Z,97625.30
2018-02-15T08:33:57.542Z,97562.91
2018-02-15T08:35:02.949Z,97468.06
2018-02-15T08:36:08.090Z,97499.92
2018-02-15T08:37:12.787Z,97560.45
2018-02-15T08:38:18.398Z,97565.86
2018-02-15T08:39:24.186Z,97566.94
2018-02-15T08:41:39.987Z,97395.36
2018-02-15T08:42:45.165Z,97410.39
2018-02-15T08:43:50.399Z,97382.65
2018-02-15T08:44:57.177Z,97409.11
2018-02-15T08:46:01.973Z,97547.33
2018-02-15T08:47:06.810Z,97551.51
2018-02-15T08:48:11.732Z,97540.17
2018-02-15T08:49:16.780Z,97548.00
2018-02-15T08:50:21.616Z,97569.08
2018-02-15T08:51:26.942Z,97553.14
2018-02-15T08:52:32.677Z,97543.16
2018-02-15T08:53:38.215Z,97539.63
2018-02-15T08:54:43.027Z,97541.38
2018-02-15T08:55:47.864Z,97298.91
2018-02-15T08:56:53.923Z,97544.03
2018-02-15T08:58:00.199Z,97522.78
2018-02-15T08:59:05.017Z,97549.23
2018-02-15T09:00:11.368Z,97506.30
2018-02-15T09:01:16.138Z,97554.73
2018-02-15T09:02:21.020Z,97503.52
2018-02-15T09:03:27.804Z,97553.00
2018-02-15T09:04:33.059Z,97557.10
2018-02-15T09:18:56.689Z,97509.03
2018-02-15T09:20:01.394Z,97568.58
2018-02-15T09:21:06.518Z,97566.17
2018-02-15T09:22:11.378Z,97562.37
2018-02-15T09:23:16.660Z,97512.12
2018-02-15T09:24:21.642Z,97559.34
2018-02-15T09:25:26.378Z,97560.56
2018-02-15T09:26:31.175Z,97411.70
2018-02-15T09:27:36.540Z,97544.06
2018-02-15T09:28:41.253Z,97590.72
2018-02-15T09:29:46.092Z,97535.07
2018-02-15T09:30:51.127Z,97535.66
2018-02-15T09:31:55.890Z,97534.50
2018-02-15T09:33:00.694Z,97565.27
2018-02-15T09:34:05.481Z,97541.34
2018-02-15T09:35:10.246Z,97586.83
2018-02-15T09:36:14.980Z,97566.38
2018-02-15T09:37:20.202Z,97540.77
2018-02-15T09:38:25.638Z,97539.16
2018-02-15T09:39:30.847Z,97569.63
2018-02-15T09:40:35.612Z,97546.09
2018-02-15T09:41:40.352Z,97481.28
2018-02-15T09:42:45.677Z,97545.17
2018-02-15T09:43:50.738Z,97540.45
2018-02-15T09:44:55.565Z,97538.38
2018-02-15T09:46:00.456Z,97532.84
2018-02-15T09:47:05.177Z,97532.39
2018-02-15T09:48:09.926Z,97545.79
2018-02-15T09:49:14.645Z,97560.92
2018-02-15T09:50:19.571Z,97536.20
2018-02-15T09:51:24.181Z,97565.08
2018-02-15T09:52:28.873Z,97515.02
2018-02-15T09:53:33.542Z,97563.48
2018-02-15T09:54:38.126Z,97536.92
2018-02-15T09:55:42.824Z,97565.20
2018-02-15T09:56:47.481Z,97570.53
2018-02-15T09:57:52.303Z,97468.61
2018-02-15T09:58:57.076Z,97565.81
2018-02-15T10:00:01.791Z,97558.20
2018-02-15T10:01:06.473Z,97567.42
2018-02-15T10:02:14.562Z,97572.63
2018-02-15T10:03:20.242Z,97384.08
2018-02-15T10:04:24.971Z,97575.13
2018-02-15T10:05:29.669Z,97573.00
2018-02-15T10:06:35.163Z,97108.58
2018-02-15T10:07:40.233Z,97345.10
2018-02-15T10:08:47.416Z,97563.63
2018-02-15T10:09:52.444Z,97569.02
2018-02-15T10:10:57.539Z,97566.38
2018-02-15T10:12:02.158Z,97561.81
2018-02-15T10:13:06.740Z,97560.21
2018-02-15T10:14:11.455Z,97557.88
2018-02-15T10:15:16.696Z,97557.90
2018-02-15T10:16:22.159Z,97564.95
2018-02-15T10:17:28.456Z,97241.13
2018-02-15T10:18:33.965Z,97509.22
2018-02-15T10:19:38.730Z,97554.56
2018-02-15T10:20:43.528Z,97546.95
2018-02-15T10:21:48.302Z,97547.64
2018-02-15T10:22:54.045Z,97540.59
2018-02-15T10:23:58.853Z,97541.38
2018-02-15T10:25:03.563Z,97535.16
2018-02-15T10:26:08.252Z,97534.39
2018-02-15T10:27:13.486Z,97538.18
2018-02-15T10:28:18.170Z,97556.88
2018-02-15T10:29:22.823Z,97535.66
2018-02-15T10:30:29.036Z,97535.53
2018-02-15T10:31:33.823Z,97535.90
2018-02-15T10:32:39.017Z,97542.44
2018-02-15T10:33:44.292Z,97545.23
2018-02-15T10:34:49.355Z,97542.90
2018-02-15T10:35:53.900Z,97475.17
2018-02-15T10:36:58.861Z,97545.38
2018-02-15T10:38:03.662Z,97539.41
2018-02-15T10:39:08.584Z,97539.28
2018-02-15T10:40:13.816Z,97536.92
2018-02-15T10:41:18.623Z,97533.69
2018-02-15T10:42:24.735Z,97535.03
2018-02-15T10:43:29.609Z,97531.86
2018-02-15T10:44:34.453Z,97529.22
2018-02-15T10:45:39.206Z,97315.45
2018-02-15T10:46:44.741Z,97425.68
2018-02-15T10:47:49.601Z,97270.72
2018-02-15T10:48:54.512Z,97553.36
2018-02-15T10:49:59.828Z,97527.66
2018-02-15T10:51:04.969Z,97303.86
2018-02-15T10:52:09.578Z,97464.83
2018-02-15T10:53:14.179Z,97518.48
2018-02-15T10:54:19.020Z,97522.92
2018-02-15T10:55:24.149Z,97518.02
2018-02-15T10:56:29.896Z,97522.04
2018-02-15T10:57:35.624Z,97521.35
2018-02-15T10:58:41.144Z,97247.14
2018-02-15T10:59:46.594Z,97532.86
2018-02-15T11:00:55.666Z,97532.70
2018-02-15T11:02:04.776Z,97531.03
2018-02-15T11:03:13.759Z,97535.38
2018-02-15T11:04:23.434Z,97536.55
2018-02-15T11:05:30.324Z,97541.80
2018-02-15T11:06:36.364Z,97542.25
2018-02-15T11:07:41.155Z,97543.56
2018-02-15T11:08:45.899Z,97423.38
2018-02-15T11:09:50.637Z,97317.23
2018-02-15T11:10:55.590Z,97538.05
2018-02-15T11:12:00.258Z,97539.93
2018-02-15T11:13:04.853Z,97505.61
2018-02-15T20:05:20.902Z,97863.36
2018-02-15T20:06:34.544Z,97724.64
2018-02-15T20:07:44.673Z,97651.52
2018-02-15T20:08:58.899Z,97853.20
2018-02-15T20:10:10.006Z,97854.53
2018-02-15T20:11:23.488Z,97855.22
2018-02-15T20:12:37.010Z,97786.59
2018-02-15T20:13:50.228Z,97858.71
2018-02-15T20:15:02.547Z,97855.07
2018-02-15T20:16:13.280Z,97851.00
2018-02-15T20:17:22.387Z,97847.24
2018-02-15T20:18:34.783Z,97853.81
2018-02-15T20:19:54.186Z,97856.38
2018-02-15T20:21:05.106Z,97851.78
2018-02-15T20:22:18.942Z,97853.25
2018-02-15T20:23:32.039Z,97693.45
2018-02-15T20:24:43.211Z,97868.30
2018-02-15T20:25:58.574Z,97863.78
2018-02-15T20:29:15.047Z,97871.14
2018-02-15T20:30:25.386Z,97875.06
2018-02-15T20:31:39.130Z,97871.45
2018-02-15T20:32:51.434Z,97874.10
2018-02-15T20:34:04.058Z,97872.77
2018-02-15T20:35:15.187Z,97875.43
2018-02-15T20:36:25.429Z,97873.67
2018-02-15T20:37:40.873Z,97871.30
2018-02-15T20:41:00.484Z,97732.53
2018-02-15T20:42:11.081Z,97916.93
2018-02-15T20:43:20.907Z,97875.31
2018-02-15T20:44:31.834Z,97878.09
2018-02-15T20:45:41.748Z,97881.67
2018-02-15T20:46:54.043Z,97883.65
2018-02-15T20:48:04.473Z,97873.80
2018-02-15T20:49:19.718Z,97880.41
2018-02-15T20:50:33.895Z,97878.19
2018-02-15T20:53:55.618Z,97882.97
